Time;durP1;ratioP1;P1;durP2;ratioP2;P2;SDS_P1;SDS_P2;PMS_P1;PMS_P2;Temp;Humidity;BMP_temperature;BMP_pressure;BME280_temperature;BME280_humidity;BME280_pressure;Samples;Min_cycle;Max_cycle;Signal;HPM_P1;HPM_P2
2023/01/18 00:02:32;;;;;;;14.87;13.37;;;0.70;1.00;;;;;;6267585;28;20596;-56
2023/01/18 00:05:39;;;;;;;15.33;13.37;;;0.60;1.00;;;;;;6286772;28;20510;-56
2023/01/18 00:08:42;;;;;;;17.67;13.67;;;0.50;1.00;;;;;;6286883;28;20237;-61
2023/01/18 00:11:47;;;;;;;14.93;12.93;;;0.70;1.00;;;;;;6285029;28;20418;-55
2023/01/18 00:14:50;;;;;;;15.90;13.13;;;0.60;1.00;;;;;;6262561;28;20290;-56
2023/01/18 00:17:55;;;;;;;13.90;12.57;;;0.50;1.00;;;;;;6262364;28;20619;-57
2023/01/18 00:21:01;;;;;;;14.77;12.67;;;0.30;1.00;;;;;;6262074;28;20361;-56
2023/01/18 00:24:09;;;;;;;14.40;12.03;;;0.50;1.00;;;;;;6261687;28;20240;-55
2023/01/18 00:27:12;;;;;;;14.73;12.40;;;0.30;1.00;;;;;;6262789;28;20612;-56
2023/01/18 00:30:17;;;;;;;14.77;12.70;;;0.50;1.00;;;;;;6262278;28;20245;-57
2023/01/18 00:33:22;;;;;;;14.20;12.80;;;0.20;1.00;;;;;;6282373;28;20556;-56
2023/01/18 00:36:25;;;;;;;15.13;13.57;;;0.30;1.00;;;;;;6284629;28;20233;-56
2023/01/18 00:39:28;;;;;;;15.83;13.20;;;0.40;1.00;;;;;;6279683;28;21467;-55
2023/01/18 00:45:52;;;;;;;16.40;12.23;;;0.60;1.00;;;;;;6284581;28;20245;-56
2023/01/18 00:48:57;;;;;;;13.30;12.03;;;0.20;1.00;;;;;;6261283;28;20242;-56
2023/01/18 00:52:00;;;;;;;13.53;12.10;;;0.20;1.00;;;;;;6261493;28;20458;-56
2023/01/18 00:55:04;;;;;;;13.23;11.93;;;0.60;1.00;;;;;;6261339;28;20238;-56
2023/01/18 00:58:07;;;;;;;14.43;12.30;;;0.40;1.00;;;;;;6261466;28;20248;-56
2023/01/18 01:01:11;;;;;;;14.67;11.70;;;0.50;1.00;;;;;;6270260;28;20233;-56
2023/01/18 01:07:37;;;;;;;12.57;11.27;;;0.30;1.00;;;;;;6275626;28;20240;-57
2023/01/18 01:10:40;;;;;;;12.33;11.03;;;0.50;1.00;;;;;;6285329;28;20249;-57
2023/01/18 01:27:06;;;;;;;13.10;11.00;;;0.40;1.00;;;;;;6259987;28;20712;-57
2023/01/18 01:30:11;;;;;;;11.90;10.83;;;0.50;1.00;;;;;;6259638;28;20753;-57
2023/01/18 01:33:14;;;;;;;12.43;11.10;;;0.50;1.00;;;;;;6280213;28;20617;-55
2023/01/18 01:36:20;;;;;;;12.73;10.30;;;0.80;1.00;;;;;;6278834;28;20519;-56
2023/01/18 01:39:23;;;;;;;13.90;11.17;;;0.60;1.00;;;;;;6279417;28;20226;-57
2023/01/18 01:42:26;;;;;;;12.23;11.13;;;0.70;1.00;;;;;;6283509;28;20233;-56
2023/01/18 01:45:32;;;;;;;13.13;11.87;;;0.40;1.00;;;;;;6259836;28;20590;-56
2023/01/18 01:48:35;;;;;;;12.80;11.60;;;0.70;1.00;;;;;;6258896;28;20234;-56
2023/01/18 01:51:42;;;;;;;12.07;10.97;;;0.90;1.00;;;;;;6255780;28;20222;-56
2023/01/18 01:54:49;;;;;;;11.17;10.27;;;0.90;1.00;;;;;;6284603;28;20241;-57
2023/01/18 01:57:58;;;;;;;11.70;10.60;;;0.50;1.00;;;;;;6284374;28;20713;-56
2023/01/18 02:01:01;;;;;;;11.13;10.13;;;0.60;1.00;;;;;;6273754;28;20727;-55
2023/01/18 02:04:05;;;;;;;11.63;10.57;;;0.80;1.00;;;;;;6286798;28;20237;-55
2023/01/18 02:07:09;;;;;;;11.80;10.70;;;0.80;1.00;;;;;;6282802;28;20239;-58
2023/01/18 02:10:13;;;;;;;11.40;10.30;;;0.60;1.00;;;;;;6284348;28;20239;-56
2023/01/18 02:13:16;;;;;;;13.30;12.00;;;0.90;1.00;;;;;;6283893;28;20693;-56
2023/01/18 02:16:26;;;;;;;14.93;13.37;;;0.60;1.00;;;;;;6281977;28;20233;-55
2023/01/18 02:20:07;;;;;;;16.13;13.67;;;0.80;1.00;;;;;;6278896;28;20248;-56
2023/01/18 02:23:31;;;;;;;14.60;12.40;;;0.90;1.00;;;;;;6262428;28;20236;-56
2023/01/18 02:27:08;;;;;;;13.53;12.20;;;0.70;1.00;;;;;;6283979;28;20359;-56
2023/01/18 02:30:22;;;;;;;14.47;13.07;;;0.80;1.00;;;;;;6283363;28;20628;-60
2023/01/18 02:33:30;;;;;;;14.03;11.80;;;1.00;1.00;;;;;;6287126;28;20341;-56
2023/01/18 02:36:41;;;;;;;12.40;11.27;;;0.70;1.00;;;;;;6274844;28;20316;-56
2023/01/18 02:39:56;;;;;;;13.00;11.77;;;0.90;1.00;;;;;;6283797;28;20618;-56
2023/01/18 02:46:37;;;;;;;13.57;12.30;;;0.80;1.00;;;;;;6284165;28;20241;-57
2023/01/18 02:49:40;;;;;;;14.57;13.17;;;0.90;1.00;;;;;;6277587;28;20253;-56
2023/01/18 02:52:46;;;;;;;14.27;12.87;;;0.80;1.00;;;;;;6259094;28;20244;-56
2023/01/18 02:55:53;;;;;;;13.83;12.43;;;0.90;1.00;;;;;;6275898;28;20646;-56
2023/01/18 02:59:01;;;;;;;11.70;10.80;;;1.00;1.00;;;;;;6282773;28;20379;-56
2023/01/18 03:02:09;;;;;;;12.87;11.47;;;0.90;1.00;;;;;;6283530;28;20614;-56
2023/01/18 03:05:13;;;;;;;14.73;13.23;;;0.60;1.00;;;;;;6281917;28;22533;-57
2023/01/18 03:08:23;;;;;;;12.10;11.00;;;1.00;1.00;;;;;;6283158;28;20237;-57
2023/01/18 03:11:34;;;;;;;12.30;11.20;;;1.00;1.00;;;;;;6280440;28;20860;-56
2023/01/18 03:14:43;;;;;;;12.33;11.13;;;1.00;1.00;;;;;;6278814;28;20233;-56
2023/01/18 03:17:51;;;;;;;11.30;10.40;;;1.00;1.00;;;;;;6283676;28;20622;-56
2023/01/18 03:20:56;;;;;;;11.43;10.43;;;0.80;1.00;;;;;;6282076;28;20272;-57
2023/01/18 03:24:03;;;;;;;11.37;10.47;;;1.10;1.00;;;;;;6283649;28;20710;-56
2023/01/18 03:33:55;;;;;;;11.60;10.53;;;0.80;1.00;;;;;;6282878;28;20225;-55
2023/01/18 03:37:01;;;;;;;11.50;10.40;;;0.80;1.00;;;;;;6280167;28;20248;-56
2023/01/18 03:40:08;;;;;;;11.13;10.03;;;0.70;1.00;;;;;;6281302;28;20241;-57
2023/01/18 03:43:16;;;;;;;11.70;10.80;;;1.20;1.00;;;;;;6282447;28;20233;-56
2023/01/18 03:46:21;;;;;;;11.20;10.13;;;1.20;1.00;;;;;;6258397;28;20238;-56
2023/01/18 03:49:27;;;;;;;11.80;10.70;;;0.80;1.00;;;;;;6257259;28;20381;-57
2023/01/18 03:52:37;;;;;;;11.00;10.10;;;0.90;1.00;;;;;;6257094;28;20234;-56
2023/01/18 03:55:44;;;;;;;10.83;9.80;;;1.00;1.00;;;;;;6257912;28;20241;-57
2023/01/18 03:58:49;;;;;;;11.67;10.57;;;1.00;1.00;;;;;;6257443;28;20646;-57
2023/01/18 04:01:52;;;;;;;11.50;10.03;;;1.10;1.00;;;;;;6261326;28;20245;-57
2023/01/18 04:05:02;;;;;;;11.33;10.23;;;0.90;1.00;;;;;;6286836;28;20226;-57
2023/01/18 04:08:06;;;;;;;10.00;9.27;;;0.80;1.00;;;;;;6274162;28;20241;-57
2023/01/18 04:11:09;;;;;;;9.77;9.07;;;1.10;1.00;;;;;;6282346;28;20233;-56
2023/01/18 04:14:12;;;;;;;9.90;9.17;;;0.90;1.00;;;;;;6283150;28;20328;-57
2023/01/18 04:17:16;;;;;;;9.87;9.17;;;0.90;1.00;;;;;;6262363;28;20317;-57
2023/01/18 04:20:20;;;;;;;9.67;8.97;;;1.20;1.00;;;;;;6259204;28;20280;-57
2023/01/18 04:23:23;;;;;;;8.83;8.23;;;1.00;1.00;;;;;;6262158;28;20230;-56
2023/01/18 04:26:26;;;;;;;8.50;7.90;;;1.00;1.00;;;;;;6282426;28;20240;-56
2023/01/18 04:29:30;;;;;;;8.83;8.20;;;1.00;1.00;;;;;;6285810;28;20241;-57
2023/01/18 04:32:33;;;;;;;8.63;8.13;;;1.20;1.00;;;;;;6266610;28;20432;-57
2023/01/18 04:35:38;;;;;;;8.87;8.30;;;1.20;1.00;;;;;;6292756;28;20254;-56
2023/01/18 04:38:41;;;;;;;7.77;7.17;;;1.00;1.00;;;;;;6280345;28;20395;-56
2023/01/18 04:41:44;;;;;;;8.37;7.80;;;0.90;1.00;;;;;;6282231;28;20237;-56
2023/01/18 04:44:47;;;;;;;8.47;7.80;;;0.80;1.00;;;;;;6285294;28;20367;-56
2023/01/18 04:47:50;;;;;;;8.57;8.00;;;0.90;1.00;;;;;;6277241;28;20242;-57
2023/01/18 04:50:55;;;;;;;8.47;7.87;;;0.90;1.00;;;;;;6280578;28;20241;-57
2023/01/18 04:53:59;;;;;;;7.43;7.10;;;0.90;1.00;;;;;;6280176;28;20778;-56
2023/01/18 04:57:02;;;;;;;8.17;7.60;;;0.90;1.00;;;;;;6273836;28;20795;-56
2023/01/18 05:00:07;;;;;;;7.97;7.27;;;1.00;1.00;;;;;;6286297;28;20363;-56
2023/01/18 05:03:12;;;;;;;8.00;7.40;;;0.90;1.00;;;;;;6298060;28;20234;-56
2023/01/18 05:06:18;;;;;;;7.43;6.93;;;0.90;1.00;;;;;;6277501;28;20480;-57
2023/01/18 05:09:21;;;;;;;7.90;7.40;;;1.30;1.00;;;;;;6288171;28;20229;-56
2023/01/18 05:12:24;;;;;;;7.97;7.37;;;1.10;1.00;;;;;;6282171;28;20267;-57
2023/01/18 05:15:27;;;;;;;7.70;7.03;;;1.00;1.00;;;;;;6283024;28;20221;-57
2023/01/18 05:18:31;;;;;;;7.33;6.93;;;1.10;1.00;;;;;;6289298;28;20627;-56
2023/01/18 05:21:35;;;;;;;7.60;7.10;;;1.10;1.00;;;;;;6279332;28;20238;-56
2023/01/18 05:24:38;;;;;;;8.23;7.70;;;1.10;1.00;;;;;;6282321;28;20233;-57
2023/01/18 05:27:41;;;;;;;7.07;6.67;;;1.20;1.00;;;;;;6279906;28;20276;-56
2023/01/18 05:30:46;;;;;;;7.63;7.23;;;1.40;1.00;;;;;;6285689;28;20252;-57
2023/01/18 05:33:50;;;;;;;7.63;7.00;;;1.60;1.00;;;;;;6278993;28;20240;-56
2023/01/18 05:36:54;;;;;;;7.57;6.87;;;1.20;1.00;;;;;;6283479;28;20233;-57
2023/01/18 05:39:57;;;;;;;7.40;7.00;;;1.20;1.00;;;;;;6284920;28;20241;-56
2023/01/18 05:43:01;;;;;;;7.33;6.87;;;1.60;1.00;;;;;;6283752;28;20229;-56
2023/01/18 05:46:04;;;;;;;11.93;8.83;;;1.20;1.00;;;;;;6282951;28;20697;-57
2023/01/18 05:49:08;;;;;;;7.43;6.83;;;1.20;1.00;;;;;;6276792;28;20233;-57
2023/01/18 05:52:12;;;;;;;7.83;7.33;;;1.70;1.00;;;;;;6280847;28;20245;-59
2023/01/18 05:55:15;;;;;;;7.50;6.90;;;1.60;1.00;;;;;;6275792;28;20225;-57
2023/01/18 05:58:18;;;;;;;7.70;7.20;;;1.70;1.00;;;;;;6275784;28;20234;-58
2023/01/18 06:01:21;;;;;;;7.33;6.87;;;1.40;1.00;;;;;;6278628;28;20610;-56
2023/01/18 06:04:24;;;;;;;7.60;7.10;;;1.40;1.00;;;;;;6290088;28;20248;-56
2023/01/18 06:07:29;;;;;;;7.53;7.13;;;1.50;1.00;;;;;;6283263;28;20233;-57
2023/01/18 06:10:32;;;;;;;7.60;7.10;;;1.70;1.00;;;;;;6281967;28;20622;-56
2023/01/18 06:13:35;;;;;;;8.47;7.70;;;1.40;1.00;;;;;;6278783;28;20244;-56
2023/01/18 06:16:38;;;;;;;7.80;7.17;;;1.80;1.00;;;;;;6279742;28;20717;-56
2023/01/18 06:19:41;;;;;;;8.27;7.47;;;1.70;1.00;;;;;;6287328;28;20257;-56
2023/01/18 06:22:46;;;;;;;8.90;7.67;;;1.40;1.00;;;;;;6286653;28;20368;-56
2023/01/18 06:25:50;;;;;;;7.97;7.37;;;1.70;1.00;;;;;;6287476;28;20860;-57
2023/01/18 06:28:53;;;;;;;10.47;7.40;;;1.70;1.00;;;;;;6288238;28;20719;-56
2023/01/18 06:31:56;;;;;;;8.13;7.47;;;1.50;1.00;;;;;;6291265;28;20248;-57
2023/01/18 06:34:59;;;;;;;8.50;7.90;;;1.60;1.00;;;;;;6283317;28;20225;-56
2023/01/18 06:38:05;;;;;;;11.27;7.93;;;1.80;1.00;;;;;;6272396;28;20642;-56
2023/01/18 06:41:08;;;;;;;8.10;7.20;;;1.80;1.00;;;;;;6276110;28;20235;-56
2023/01/18 06:44:11;;;;;;;8.50;7.57;;;1.70;1.00;;;;;;6287608;28;20275;-57
2023/01/18 06:47:17;;;;;;;8.33;7.50;;;1.90;1.00;;;;;;6280555;28;20770;-56
2023/01/18 06:50:21;;;;;;;8.57;7.70;;;1.80;1.00;;;;;;6288419;28;20233;-56
2023/01/18 06:53:26;;;;;;;8.53;7.80;;;1.60;1.00;;;;;;6278939;28;20355;-56
2023/01/18 06:56:29;;;;;;;8.07;7.37;;;1.70;1.00;;;;;;6277186;28;20234;-56
2023/01/18 06:59:32;;;;;;;7.10;6.70;;;1.60;1.00;;;;;;6277560;28;20237;-56
2023/01/18 07:02:36;;;;;;;8.63;7.93;;;1.90;1.00;;;;;;6282905;28;20635;-57
2023/01/18 07:05:39;;;;;;;7.90;7.23;;;1.90;1.00;;;;;;6281178;28;20236;-57
2023/01/18 07:08:43;;;;;;;8.43;7.73;;;1.80;1.00;;;;;;6285263;28;20244;-55
2023/01/18 07:11:46;;;;;;;7.60;7.10;;;1.90;1.00;;;;;;6278870;28;20237;-56
2023/01/18 07:14:50;;;;;;;8.23;7.53;;;1.80;1.00;;;;;;6281009;28;20259;-57
2023/01/18 07:17:53;;;;;;;8.33;7.50;;;1.50;1.00;;;;;;6277815;28;20328;-57
2023/01/18 07:20:57;;;;;;;8.97;8.00;;;1.70;1.00;;;;;;6273837;28;20225;-56
2023/01/18 07:24:02;;;;;;;8.30;7.60;;;1.80;1.00;;;;;;6270720;28;20237;-56
2023/01/18 07:27:05;;;;;;;7.97;7.17;;;1.40;1.00;;;;;;6277855;28;20612;-57
2023/01/18 07:30:11;;;;;;;7.93;7.23;;;1.80;1.00;;;;;;6274123;28;20280;-55
2023/01/18 07:33:14;;;;;;;9.77;7.40;;;1.70;1.00;;;;;;6285502;28;20260;-57
2023/01/18 07:36:17;;;;;;;13.00;7.73;;;1.60;1.00;;;;;;6273210;28;20248;-56
2023/01/18 07:39:21;;;;;;;6.97;6.57;;;1.80;1.00;;;;;;6282967;28;20237;-55
2023/01/18 07:42:24;;;;;;;7.27;6.77;;;1.50;1.00;;;;;;6286973;28;20382;-57
2023/01/18 07:45:27;;;;;;;7.57;6.93;;;1.40;1.00;;;;;;6287701;28;20244;-57
2023/01/18 07:48:31;;;;;;;8.33;7.10;;;1.50;1.00;;;;;;6273707;28;20744;-55
2023/01/18 07:51:34;;;;;;;7.23;6.83;;;1.80;1.00;;;;;;6280773;28;20259;-56
2023/01/18 07:54:39;;;;;;;9.33;7.80;;;1.40;1.00;;;;;;6293694;28;20458;-56
2023/01/18 07:57:42;;;;;;;8.03;7.43;;;1.50;1.00;;;;;;6286319;28;20236;-55
2023/01/18 08:00:46;;;;;;;7.50;7.10;;;1.70;1.00;;;;;;6278580;28;20222;-56
2023/01/18 08:03:50;;;;;;;7.83;7.13;;;1.60;1.00;;;;;;6299809;27;20236;-59
2023/01/18 08:06:53;;;;;;;8.63;7.77;;;1.90;1.00;;;;;;6284462;28;20249;-55
2023/01/18 08:09:57;;;;;;;7.47;6.97;;;1.90;1.00;;;;;;6285050;28;20753;-56
2023/01/18 08:13:01;;;;;;;7.30;6.73;;;1.80;1.00;;;;;;6284695;28;20761;-56
2023/01/18 08:16:06;;;;;;;8.93;7.57;;;1.90;1.00;;;;;;6277022;28;20236;-56
2023/01/18 08:19:09;;;;;;;7.57;6.93;;;2.00;1.00;;;;;;6284297;28;20236;-57
2023/01/18 08:22:12;;;;;;;8.87;7.37;;;2.10;1.00;;;;;;6281298;28;20817;-57
2023/01/18 08:25:17;;;;;;;8.30;7.60;;;1.80;1.00;;;;;;6279599;28;20828;-56
2023/01/18 08:28:20;;;;;;;10.60;7.50;;;2.10;1.00;;;;;;6279387;28;20237;-56
2023/01/18 08:31:23;;;;;;;7.57;7.00;;;2.20;1.00;;;;;;6289713;28;20308;-56
2023/01/18 08:34:26;;;;;;;7.70;7.10;;;1.90;1.00;;;;;;6289158;28;20417;-56
2023/01/18 08:37:29;;;;;;;7.73;7.13;;;2.10;1.00;;;;;;6287986;28;20229;-57
2023/01/18 08:40:35;;;;;;;7.50;6.80;;;2.20;1.00;;;;;;6283221;28;20285;-57
2023/01/18 08:43:38;;;;;;;6.63;6.23;;;2.30;1.00;;;;;;6279615;28;20247;-59
2023/01/18 08:46:41;;;;;;;6.80;6.30;;;2.40;1.00;;;;;;6278703;28;20237;-56
2023/01/18 08:49:45;;;;;;;8.73;6.70;;;2.40;1.00;;;;;;6287514;28;20641;-56
2023/01/18 08:52:51;;;;;;;8.97;6.83;;;2.20;1.00;;;;;;6275903;28;20254;-56
2023/01/18 08:55:55;;;;;;;7.73;6.93;;;2.30;1.00;;;;;;6287721;28;20241;-57
2023/01/18 08:58:58;;;;;;;8.07;7.23;;;2.50;1.00;;;;;;6286882;28;20413;-56
2023/01/18 09:02:02;;;;;;;7.43;6.93;;;2.60;1.00;;;;;;6290373;28;20251;-56
2023/01/18 09:05:05;;;;;;;7.40;6.80;;;2.50;1.00;;;;;;6285535;28;20378;-57
2023/01/18 09:08:08;;;;;;;7.03;6.53;;;2.60;1.00;;;;;;6289036;28;20826;-56
2023/01/18 09:11:13;;;;;;;10.10;6.73;;;2.70;1.00;;;;;;6286443;28;20399;-56
2023/01/18 09:14:16;;;;;;;8.70;6.23;;;2.80;1.00;;;;;;6286765;28;20288;-56
2023/01/18 09:17:20;;;;;;;7.33;6.87;;;2.80;1.00;;;;;;6295805;28;20373;-56
2023/01/18 09:20:23;;;;;;;7.33;6.83;;;2.70;1.00;;;;;;6292407;28;20313;-56
2023/01/18 09:23:27;;;;;;;7.23;6.63;;;2.80;1.00;;;;;;6288722;28;20724;-56
2023/01/18 09:26:31;;;;;;;7.27;6.77;;;2.80;1.00;;;;;;6283929;28;20222;-56
2023/01/18 09:29:34;;;;;;;7.90;6.93;;;2.90;1.00;;;;;;6285998;28;20229;-57
2023/01/18 09:32:37;;;;;;;8.20;7.43;;;3.00;1.00;;;;;;6289402;28;20236;-56
2023/01/18 09:35:43;;;;;;;8.63;7.93;;;2.70;1.00;;;;;;6282988;28;20244;-56
2023/01/18 09:38:46;;;;;;;8.23;7.30;;;2.70;1.00;;;;;;6282972;28;20642;-56
2023/01/18 09:41:53;;;;;;;7.83;7.13;;;2.90;1.00;;;;;;6285035;28;20225;-56
2023/01/18 09:44:59;;;;;;;7.63;7.03;;;2.90;1.00;;;;;;6278734;28;20238;-58
2023/01/18 09:48:05;;;;;;;7.80;7.00;;;3.10;1.00;;;;;;6280263;28;20714;-56
2023/01/18 09:51:12;;;;;;;8.73;7.73;;;3.30;1.00;;;;;;6288445;28;20248;-57
2023/01/18 09:54:29;;;;;;;7.90;7.17;;;3.50;1.00;;;;;;6278699;28;20261;-56
2023/01/18 09:57:46;;;;;;;12.53;7.70;;;3.50;1.00;;;;;;6277606;28;20469;-56
2023/01/18 10:00:49;;;;;;;8.90;7.67;;;3.70;1.00;;;;;;6279191;28;21769;-57
2023/01/18 10:03:56;;;;;;;8.07;7.37;;;3.70;1.00;;;;;;6291186;28;20840;-57
2023/01/18 10:07:02;;;;;;;8.47;7.60;;;3.90;1.00;;;;;;6285093;28;20622;-55
2023/01/18 10:10:06;;;;;;;8.37;7.57;;;4.10;1.00;;;;;;6271810;28;20607;-56
2023/01/18 10:13:42;;;;;;;7.93;7.30;;;4.00;1.00;;;;;;6287484;28;20248;-56
2023/01/18 10:16:51;;;;;;;8.80;7.80;;;3.90;1.00;;;;;;6270860;28;20244;-56
2023/01/18 10:19:58;;;;;;;10.37;8.20;;;4.20;1.00;;;;;;6280552;28;20400;-56
2023/01/18 10:23:09;;;;;;;13.47;7.73;;;4.20;1.00;;;;;;6285705;28;20711;-59
2023/01/18 10:26:17;;;;;;;8.97;7.57;;;4.40;1.00;;;;;;6292295;28;20411;-56
2023/01/18 10:29:31;;;;;;;9.43;8.70;;;4.10;1.00;;;;;;6280019;28;20237;-56
2023/01/18 10:32:42;;;;;;;8.33;7.53;;;4.10;1.00;;;;;;6290201;28;20255;-56
2023/01/18 10:35:48;;;;;;;9.90;8.23;;;4.40;1.00;;;;;;6271862;28;20237;-57
2023/01/18 10:38:54;;;;;;;10.27;7.87;;;4.50;1.00;;;;;;6276764;28;20727;-56
2023/01/18 10:42:01;;;;;;;8.50;7.83;;;4.50;1.00;;;;;;6290761;28;20310;-56
2023/01/18 10:45:18;;;;;;;12.93;8.60;;;4.40;1.00;;;;;;6279169;28;20264;-56
2023/01/18 10:48:29;;;;;;;8.20;7.50;;;4.40;1.00;;;;;;6277598;28;20238;-57
2023/01/18 10:51:34;;;;;;;10.50;8.63;;;4.40;1.00;;;;;;6279732;28;20499;-56
2023/01/18 10:54:37;;;;;;;9.23;7.80;;;4.10;1.00;;;;;;6286698;28;20314;-57
2023/01/18 10:57:44;;;;;;;8.67;7.87;;;3.90;1.00;;;;;;6282342;28;20328;-57
2023/01/18 11:00:53;;;;;;;8.17;7.37;;;4.30;1.00;;;;;;6280451;28;20236;-56
2023/01/18 11:04:04;;;;;;;9.27;7.70;;;4.20;1.00;;;;;;6284641;28;20371;-56
2023/01/18 11:07:08;;;;;;;9.63;6.80;;;4.10;1.00;;;;;;6277363;28;20234;-56
2023/01/18 11:10:25;;;;;;;7.50;6.87;;;4.00;1.00;;;;;;6278633;28;20353;-56
2023/01/18 11:13:32;;;;;;;7.90;7.30;;;4.00;1.00;;;;;;6279468;28;20240;-57
2023/01/18 11:16:41;;;;;;;10.43;7.43;;;4.20;1.00;;;;;;6283168;28;20251;-60
2023/01/18 11:19:46;;;;;;;7.60;6.90;;;4.20;1.00;;;;;;6274543;28;20237;-56
2023/01/18 11:22:54;;;;;;;8.53;7.00;;;4.10;1.00;;;;;;6278967;28;20234;-56
2023/01/18 11:26:00;;;;;;;7.03;6.57;;;4.00;1.00;;;;;;6279669;28;20229;-56
2023/01/18 11:29:06;;;;;;;7.33;6.73;;;4.30;1.00;;;;;;6276638;28;20255;-57
2023/01/18 11:32:19;;;;;;;7.40;6.70;;;4.00;1.00;;;;;;6281917;28;20225;-56
2023/01/18 11:35:36;;;;;;;10.03;6.30;;;4.00;1.00;;;;;;6272734;28;20287;-56
2023/01/18 11:38:40;;;;;;;6.97;6.23;;;4.20;1.00;;;;;;6279051;28;20407;-56
2023/01/18 11:41:43;;;;;;;6.90;6.20;;;4.20;1.00;;;;;;6277055;28;20638;-56
2023/01/18 11:44:52;;;;;;;9.67;6.40;;;4.00;1.00;;;;;;6279257;28;20237;-56
2023/01/18 11:48:07;;;;;;;6.67;5.97;;;4.30;1.00;;;;;;6286408;28;20258;-57
2023/01/18 11:51:18;;;;;;;6.83;6.10;;;4.10;1.00;;;;;;6283714;28;20225;-57
2023/01/18 11:54:26;;;;;;;6.30;5.93;;;4.30;1.00;;;;;;6281493;28;20237;-57
2023/01/18 11:57:30;;;;;;;10.33;6.70;;;3.80;1.00;;;;;;6283152;28;20234;-56
2023/01/18 12:00:45;;;;;;;7.20;6.53;;;4.00;1.00;;;;;;6283455;28;20709;-56
2023/01/18 12:03:56;;;;;;;6.70;6.10;;;3.80;1.00;;;;;;6274952;28;20717;-57
2023/01/18 12:07:16;;;;;;;6.83;6.23;;;4.00;1.00;;;;;;6281491;28;20686;-60
2023/01/18 12:10:22;;;;;;;7.17;6.47;;;4.10;1.00;;;;;;6275596;28;20233;-55
2023/01/18 12:13:35;;;;;;;7.73;6.60;;;3.90;1.00;;;;;;6281026;28;20774;-56
2023/01/18 12:16:52;;;;;;;6.87;6.10;;;3.80;1.00;;;;;;6273471;28;20372;-56
2023/01/18 12:20:25;;;;;;;6.73;6.13;;;3.90;1.00;;;;;;6267326;28;20241;-55
2023/01/18 12:23:53;;;;;;;11.90;7.20;;;3.80;1.00;;;;;;6265069;28;20229;-57
2023/01/18 12:26:58;;;;;;;6.93;6.40;;;3.80;1.00;;;;;;6283806;28;20329;-56
2023/01/18 12:30:18;;;;;;;7.30;6.63;;;4.00;1.00;;;;;;6279886;28;20803;-56
2023/01/18 12:33:33;;;;;;;7.20;6.70;;;3.90;1.00;;;;;;6287070;28;20237;-56
2023/01/18 12:36:57;;;;;;;7.07;6.37;;;3.90;1.00;;;;;;6265668;28;20233;-57
2023/01/18 12:40:25;;;;;;;7.93;6.90;;;3.90;1.00;;;;;;6286373;28;20241;-56
2023/01/18 12:43:37;;;;;;;8.23;6.87;;;3.80;1.00;;;;;;6288351;28;20956;-56
2023/01/18 12:46:46;;;;;;;13.77;7.13;;;3.70;1.00;;;;;;6278093;28;20608;-58
2023/01/18 12:49:56;;;;;;;12.90;7.83;;;3.90;1.00;;;;;;6281571;28;20240;-57
2023/01/18 12:53:03;;;;;;;13.20;7.50;;;3.90;1.00;;;;;;6293218;28;20221;-57
2023/01/18 12:56:15;;;;;;;9.67;7.90;;;3.80;1.00;;;;;;6287758;28;20230;-56
2023/01/18 12:59:20;;;;;;;8.50;7.83;;;3.70;1.00;;;;;;6289832;28;20813;-57
2023/01/18 13:02:32;;;;;;;10.93;7.23;;;4.00;1.00;;;;;;6271119;28;20233;-56
2023/01/18 13:05:46;;;;;;;8.23;7.43;;;3.90;1.00;;;;;;6287072;28;20395;-55
2023/01/18 13:08:55;;;;;;;15.83;7.30;;;4.10;1.00;;;;;;6266995;28;20328;-57
2023/01/18 13:12:00;;;;;;;8.20;7.37;;;3.80;1.00;;;;;;6279185;28;20248;-57
2023/01/18 13:15:13;;;;;;;12.43;7.40;;;4.00;1.00;;;;;;6282731;28;20241;-56
2023/01/18 13:18:22;;;;;;;9.43;6.40;;;3.80;1.00;;;;;;6285466;28;20233;-56
2023/01/18 13:21:50;;;;;;;8.00;7.20;;;3.90;1.00;;;;;;6278735;28;20240;-55
2023/01/18 13:25:18;;;;;;;8.40;6.93;;;3.80;1.00;;;;;;6268516;28;20233;-55
2023/01/18 13:28:24;;;;;;;7.40;6.70;;;3.90;1.00;;;;;;6276738;28;20240;-58
2023/01/18 13:31:31;;;;;;;10.33;7.50;;;4.00;1.00;;;;;;6285511;28;20233;-56
2023/01/18 13:34:36;;;;;;;9.77;7.17;;;3.70;1.00;;;;;;6283491;28;20717;-57
2023/01/18 13:37:52;;;;;;;7.63;6.87;;;3.70;1.00;;;;;;6277645;28;20256;-57
2023/01/18 13:41:02;;;;;;;7.90;7.13;;;3.70;1.00;;;;;;6280312;28;20320;-56
2023/01/18 13:44:06;;;;;;;6.77;6.27;;;3.70;1.00;;;;;;6283942;28;20225;-56
2023/01/18 13:47:47;;;;;;;7.97;7.20;;;3.50;1.00;;;;;;6279390;28;20233;-56
2023/01/18 13:50:51;;;;;;;6.97;6.50;;;3.50;1.00;;;;;;6278058;28;20238;-57
2023/01/18 13:53:54;;;;;;;10.83;7.33;;;3.80;1.00;;;;;;6280709;28;20317;-57
2023/01/18 13:57:16;;;;;;;9.87;7.40;;;3.60;1.00;;;;;;6282338;28;20298;-56
2023/01/18 14:00:23;;;;;;;9.43;7.07;;;3.90;1.00;;;;;;6286460;28;20474;-56
2023/01/18 14:03:30;;;;;;;8.10;6.50;;;3.50;1.00;;;;;;6285535;28;20236;-56
2023/01/18 14:06:36;;;;;;;6.80;6.30;;;3.50;1.00;;;;;;6284578;28;20321;-56
2023/01/18 14:09:42;;;;;;;8.67;6.00;;;3.20;1.00;;;;;;6280396;28;20234;-56
2023/01/18 14:12:48;;;;;;;7.03;6.30;;;3.40;1.00;;;;;;6270823;28;20236;-56
2023/01/18 14:15:53;;;;;;;7.60;6.37;;;3.30;1.00;;;;;;6271913;28;20241;-58
2023/01/18 14:19:00;;;;;;;7.40;6.70;;;3.50;1.00;;;;;;6280039;28;20229;-56
2023/01/18 14:22:17;;;;;;;6.93;6.40;;;3.30;1.00;;;;;;6283109;28;20237;-57
2023/01/18 14:25:47;;;;;;;7.10;6.40;;;3.40;1.00;;;;;;6273711;28;20701;-56
2023/01/18 14:28:57;;;;;;;7.20;6.50;;;3.30;1.00;;;;;;6281653;28;20241;-56
2023/01/18 14:32:01;;;;;;;7.77;6.97;;;3.20;1.00;;;;;;6288535;28;20236;-61
2023/01/18 14:35:18;;;;;;;7.57;6.97;;;3.50;1.00;;;;;;6270916;28;20248;-57
2023/01/18 14:38:21;;;;;;;7.77;6.93;;;3.20;1.00;;;;;;6273338;28;20741;-56
2023/01/18 14:41:25;;;;;;;7.87;7.23;;;3.50;1.00;;;;;;6282182;28;20225;-56
2023/01/18 14:44:37;;;;;;;8.17;7.27;;;3.30;1.00;;;;;;6278995;28;20225;-56
2023/01/18 14:48:01;;;;;;;7.37;6.70;;;3.50;1.00;;;;;;6274371;28;20226;-56
2023/01/18 14:51:05;;;;;;;7.37;6.67;;;3.30;1.00;;;;;;6270651;28;20225;-56
2023/01/18 14:54:16;;;;;;;8.13;7.40;;;3.30;1.00;;;;;;6278513;28;20232;-56
2023/01/18 14:57:21;;;;;;;8.13;7.40;;;3.10;1.00;;;;;;6286133;28;20233;-56
2023/01/18 15:00:26;;;;;;;7.93;7.20;;;3.10;1.00;;;;;;6284080;28;20240;-56
2023/01/18 15:03:30;;;;;;;8.33;7.53;;;3.20;1.00;;;;;;6282529;28;20728;-56
2023/01/18 15:06:39;;;;;;;8.13;7.43;;;3.30;1.00;;;;;;6280273;28;20714;-56
2023/01/18 15:09:44;;;;;;;11.87;7.50;;;3.30;1.00;;;;;;6294868;28;20237;-56
2023/01/18 15:12:51;;;;;;;8.53;7.73;;;3.20;1.00;;;;;;6275807;28;20240;-57
2023/01/18 15:15:59;;;;;;;10.37;7.43;;;3.30;1.00;;;;;;6288610;28;20422;-55
2023/01/18 15:19:03;;;;;;;9.93;8.03;;;3.10;1.00;;;;;;6276834;28;20287;-56
2023/01/18 15:22:10;;;;;;;8.00;6.80;;;3.10;1.00;;;;;;6274670;28;20233;-56
2023/01/18 15:25:19;;;;;;;7.47;7.00;;;3.20;1.00;;;;;;6285247;28;20546;-56
2023/01/18 15:28:24;;;;;;;7.80;7.13;;;3.30;1.00;;;;;;6275340;28;20702;-56
2023/01/18 15:31:29;;;;;;;8.27;7.57;;;3.40;1.00;;;;;;6281406;28;20225;-56
2023/01/18 15:34:35;;;;;;;8.03;7.43;;;3.10;1.00;;;;;;6271986;28;20238;-55
2023/01/18 15:37:39;;;;;;;8.37;7.30;;;3.10;1.00;;;;;;6280589;28;20233;-56
2023/01/18 15:40:52;;;;;;;8.43;7.20;;;3.40;1.00;;;;;;6279907;28;20252;-57
2023/01/18 15:43:55;;;;;;;6.83;6.37;;;3.20;1.00;;;;;;6279589;28;20229;-57
2023/01/18 15:47:00;;;;;;;9.17;6.97;;;3.10;1.00;;;;;;6289933;28;20721;-55
2023/01/18 15:50:05;;;;;;;8.27;7.57;;;3.10;1.00;;;;;;6283495;28;20662;-56
2023/01/18 15:53:17;;;;;;;8.00;7.30;;;3.20;1.00;;;;;;6267683;28;20229;-57
2023/01/18 15:56:26;;;;;;;9.47;6.73;;;3.20;1.00;;;;;;6277895;28;20793;-56
2023/01/18 15:59:29;;;;;;;11.13;7.13;;;3.20;1.00;;;;;;6281365;28;20237;-56
2023/01/18 16:02:33;;;;;;;8.97;7.53;;;3.20;1.00;;;;;;6271510;28;20711;-56
2023/01/18 16:05:37;;;;;;;7.40;6.80;;;3.20;1.00;;;;;;6279647;28;20388;-56
2023/01/18 16:09:07;;;;;;;8.80;7.13;;;3.10;1.00;;;;;;6284743;28;20251;-56
2023/01/18 16:12:32;;;;;;;7.87;7.17;;;3.20;1.00;;;;;;6278864;28;20364;-56
2023/01/18 16:15:35;;;;;;;9.23;8.03;;;3.10;1.00;;;;;;6289869;28;20237;-57
2023/01/18 16:18:42;;;;;;;7.83;7.17;;;3.10;1.00;;;;;;6292235;28;20244;-56
2023/01/18 16:21:48;;;;;;;7.50;6.83;;;3.00;1.00;;;;;;6288116;28;20225;-56
2023/01/18 16:24:56;;;;;;;8.70;7.67;;;2.90;1.00;;;;;;6281893;28;20626;-56
2023/01/18 16:28:00;;;;;;;7.53;6.87;;;3.00;1.00;;;;;;6284910;28;20233;-56
2023/01/18 16:31:04;;;;;;;7.07;6.57;;;3.00;1.00;;;;;;6289866;28;20244;-56
2023/01/18 16:34:21;;;;;;;8.00;7.17;;;3.10;1.00;;;;;;6283317;28;20229;-56
2023/01/18 16:37:24;;;;;;;10.87;8.10;;;2.90;1.00;;;;;;6284497;28;20677;-56
2023/01/18 16:40:28;;;;;;;8.43;7.83;;;3.10;1.00;;;;;;6280937;28;20714;-56
2023/01/18 16:43:34;;;;;;;8.77;7.97;;;3.10;1.00;;;;;;6290311;28;20232;-56
2023/01/18 16:46:37;;;;;;;9.40;7.77;;;3.00;1.00;;;;;;6288474;28;20790;-56
2023/01/18 16:49:42;;;;;;;11.10;8.83;;;2.90;1.00;;;;;;6281720;28;20703;-56
2023/01/18 16:52:46;;;;;;;12.70;9.13;;;2.90;1.00;;;;;;6287945;28;20339;-56
2023/01/18 16:55:49;;;;;;;12.77;9.80;;;3.00;1.00;;;;;;6282057;28;20667;-56
2023/01/18 16:58:52;;;;;;;10.67;8.77;;;3.00;1.00;;;;;;6276439;28;20734;-56
2023/01/18 17:01:55;;;;;;;12.10;9.37;;;2.90;1.00;;;;;;6284359;28;20237;-55
2023/01/18 17:04:59;;;;;;;14.53;9.67;;;2.90;1.00;;;;;;6280711;28;20234;-56